createdAt,value
2018-01-01T00:00:40.634Z,96485.09
2018-01-01T00:01:43.694Z,96494.27
2018-01-01T00:02:47.226Z,96485.56
2018-01-01T00:03:50.385Z,96494.06
2018-01-01T00:04:53.476Z,96493.77
2018-01-01T00:05:56.566Z,96500.27
2018-01-01T00:06:59.699Z,96490.20
2018-01-01T00:08:03.789Z,96487.63
2018-01-01T00:09:07.375Z,96489.24
2018-01-01T00:10:11.425Z,96491.52
2018-01-01T00:11:14.544Z,96489.77
2018-01-01T00:12:17.686Z,96489.39
2018-01-01T00:13:20.758Z,96493.81
2018-01-01T00:14:23.875Z,96495.13
2018-01-01T00:15:27.808Z,96499.00
2018-01-01T00:16:30.897Z,96500.97
2018-01-01T00:17:34.920Z,96499.98
2018-01-01T00:18:38.004Z,96503.84
2018-01-01T00:19:41.124Z,96508.47
2018-01-01T00:20:44.245Z,96501.11
2018-01-01T00:21:47.754Z,96504.53
2018-01-01T00:22:50.845Z,96330.58
2018-01-01T00:23:53.901Z,96466.41
2018-01-01T00:24:57.028Z,96462.05
2018-01-01T00:26:00.101Z,96452.69
2018-01-01T00:27:03.200Z,96419.48
2018-01-01T00:28:06.262Z,96436.86
2018-01-01T00:29:09.346Z,96382.70
2018-01-01T00:30:12.403Z,96439.33
2018-01-01T00:31:15.446Z,96376.70
2018-01-01T00:32:18.395Z,96433.54
2018-01-01T00:33:21.803Z,96490.33
2018-01-01T00:34:24.824Z,96485.80
2018-01-01T00:35:27.908Z,96473.23
2018-01-01T00:36:32.008Z,96493.56
2018-01-01T00:37:35.081Z,96497.22
2018-01-01T00:38:38.155Z,96484.72
2018-01-01T00:39:41.680Z,96497.61
2018-01-01T00:40:44.801Z,96491.34
2018-01-01T00:41:47.885Z,96489.75
2018-01-01T00:42:50.974Z,96480.28
2018-01-01T00:43:54.070Z,96490.35
2018-01-01T00:44:57.120Z,96480.17
2018-01-01T00:46:00.231Z,96475.83
2018-01-01T00:47:03.332Z,96522.28
2018-01-01T00:48:06.548Z,96511.51
2018-01-01T00:49:09.627Z,96529.03
2018-01-01T00:50:12.706Z,96537.66
2018-01-01T00:51:15.822Z,96563.34
2018-01-01T00:52:18.802Z,96580.13
2018-01-01T00:53:21.815Z,96544.43
2018-01-01T00:54:24.806Z,96531.34
2018-01-01T00:55:27.823Z,96561.71
2018-01-01T00:56:31.403Z,96565.46
2018-01-01T00:57:34.799Z,96581.33
2018-01-01T00:58:37.907Z,96574.43
2018-01-01T00:59:40.999Z,96591.80
2018-01-01T01:00:44.029Z,96578.73
2018-01-01T01:01:47.121Z,96581.06
2018-01-01T01:02:50.650Z,96545.39
2018-01-01T01:03:53.806Z,96558.61
2018-01-01T01:04:56.937Z,96573.78
2018-01-01T01:05:59.997Z,96571.27
2018-01-01T01:07:03.078Z,96574.88
2018-01-01T01:08:06.156Z,96579.06
2018-01-01T01:09:09.259Z,96579.79
2018-01-01T01:10:12.357Z,96559.42
2018-01-01T01:11:15.463Z,96569.86
2018-01-01T01:12:18.578Z,96555.82
2018-01-01T01:13:21.754Z,96579.33
2018-01-01T01:14:25.368Z,96580.23
2018-01-01T01:15:28.497Z,96587.63
2018-01-01T01:16:31.508Z,96603.35
2018-01-01T01:17:34.616Z,96581.64
2018-01-01T01:18:37.785Z,96605.29
2018-01-01T01:19:40.899Z,96608.44
2018-01-01T01:20:45.468Z,96596.45
2018-01-01T01:21:48.610Z,96616.37
2018-01-01T01:22:51.745Z,96605.56
2018-01-01T01:23:54.900Z,96614.48
2018-01-01T01:24:57.999Z,96594.25
2018-01-01T01:26:01.586Z,96617.03
2018-01-01T01:27:04.703Z,96593.89
2018-01-01T01:28:07.769Z,96610.13
2018-01-01T01:29:10.906Z,96603.06
2018-01-01T01:30:14.016Z,96626.38
2018-01-01T01:31:17.069Z,96611.62
2018-01-01T01:32:20.512Z,96603.03
2018-01-01T01:33:23.604Z,96613.30
2018-01-01T01:34:26.717Z,96633.86
2018-01-01T01:35:29.690Z,96632.22
2018-01-01T01:36:32.716Z,96616.19
2018-01-01T01:37:36.198Z,96611.85
2018-01-01T01:38:39.652Z,96632.13
2018-01-01T01:39:42.735Z,96626.56
2018-01-01T01:40:45.808Z,96635.69
2018-01-01T01:41:48.841Z,96610.34
2018-01-01T01:42:51.942Z,96611.67
2018-01-01T01:43:55.013Z,96625.81
2018-01-01T01:44:58.455Z,96610.78
2018-01-01T01:46:01.587Z,96608.59
2018-01-01T01:47:04.697Z,96616.11
2018-01-01T01:48:07.783Z,96600.84
2018-01-01T01:49:10.936Z,96618.14
2018-01-01T01:50:14.032Z,96607.00
2018-01-01T01:51:18.766Z,96617.50
2018-01-01T01:52:21.835Z,96625.59
2018-01-01T01:53:24.845Z,96604.73
2018-01-01T01:54:27.876Z,96620.23
2018-01-01T01:55:30.922Z,96628.48
2018-01-01T01:56:34.008Z,96623.09
2018-01-01T01:57:37.526Z,96625.55
2018-01-01T01:58:41.416Z,96627.73
2018-01-01T01:59:44.425Z,96626.20
2018-01-01T02:00:48.490Z,96621.66
2018-01-01T02:01:51.564Z,96617.28
2018-01-01T02:02:54.757Z,96619.75
2018-01-01T02:03:57.707Z,96620.48
2018-01-01T02:05:00.724Z,96621.95
2018-01-01T02:06:03.677Z,96628.69
2018-01-01T02:07:06.741Z,96630.16
2018-01-01T02:08:09.776Z,96629.78
2018-01-01T02:09:13.203Z,96633.77
2018-01-01T02:10:16.284Z,96637.14
2018-01-01T02:11:19.327Z,96639.39
2018-01-01T02:12:22.376Z,96631.63
2018-01-01T02:13:25.527Z,96623.09
2018-01-01T02:14:28.599Z,96634.67
2018-01-01T02:15:32.047Z,96628.97
2018-01-01T02:16:35.987Z,96639.75
2018-01-01T02:17:39.073Z,96637.45
2018-01-01T02:18:42.146Z,96630.27
2018-01-01T02:19:45.144Z,96622.92
2018-01-01T02:20:48.173Z,96620.86
2018-01-01T02:21:51.682Z,96616.37
2018-01-01T02:22:54.670Z,96616.03
2018-01-01T02:23:57.956Z,96614.39
2018-01-01T02:25:00.993Z,96611.16
2018-01-01T02:26:05.208Z,96620.70
2018-01-01T02:27:08.424Z,96618.28
2018-01-01T02:28:11.878Z,96611.40
2018-01-01T02:29:16.621Z,96619.53
2018-01-01T02:30:19.723Z,96623.05
2018-01-01T02:31:22.816Z,96632.95
2018-01-01T02:32:25.916Z,96635.53
2018-01-01T02:33:28.976Z,96640.97
2018-01-01T02:34:32.389Z,96638.97
2018-01-01T02:35:35.444Z,96651.16
2018-01-01T02:36:38.473Z,96658.89
2018-01-01T02:37:41.517Z,96658.78
2018-01-01T02:38:44.567Z,96661.67
2018-01-01T02:39:47.734Z,96657.36
2018-01-01T02:40:51.316Z,96665.95
2018-01-01T02:41:54.543Z,96676.61
2018-01-01T02:42:57.710Z,96682.95
2018-01-01T02:44:18.678Z,96664.30
2018-01-01T02:45:21.704Z,96684.95
2018-01-01T02:46:24.823Z,96683.29
2018-01-01T02:47:28.339Z,96686.36
2018-01-01T02:48:31.396Z,96676.39
2018-01-01T02:49:34.439Z,96692.84
2018-01-01T02:50:37.502Z,96707.91
2018-01-01T02:51:40.423Z,96693.46
2018-01-01T02:52:43.389Z,96690.45
2018-01-01T02:53:46.786Z,96682.97
2018-01-01T02:54:49.859Z,96680.04
2018-01-01T02:55:52.772Z,96679.47
2018-01-01T02:56:55.840Z,96680.08
2018-01-01T02:57:58.971Z,96681.88
2018-01-01T02:59:02.050Z,96683.69
2018-01-01T03:00:05.564Z,96688.52
2018-01-01T03:01:08.648Z,96683.35
2018-01-01T03:02:11.707Z,96690.07
2018-01-01T03:03:14.758Z,96680.91
2018-01-01T03:04:17.855Z,96682.38
2018-01-01T03:05:20.904Z,96681.61
2018-01-01T03:06:24.435Z,96673.20
2018-01-01T03:07:27.534Z,96675.98
2018-01-01T03:08:30.664Z,96679.30
2018-01-01T03:09:33.720Z,96671.41
2018-01-01T03:10:37.934Z,96679.80
2018-01-01T03:11:41.086Z,96670.38
2018-01-01T03:12:44.544Z,96677.20
2018-01-01T03:13:47.572Z,96675.90
2018-01-01T03:14:50.630Z,96680.22
2018-01-01T03:15:53.681Z,96671.74
2018-01-01T03:16:56.729Z,96671.72
2018-01-01T03:17:59.698Z,96675.04
2018-01-01T03:19:03.162Z,96671.88
2018-01-01T03:20:06.990Z,96679.89
2018-01-01T03:21:10.044Z,96676.02
2018-01-01T03:22:13.774Z,96675.59
2018-01-01T03:23:16.917Z,96681.88
2018-01-01T03:24:20.911Z,96680.45
2018-01-01T03:25:24.445Z,96686.06
2018-01-01T03:26:27.538Z,96683.14
2018-01-01T03:27:30.653Z,96686.14
2018-01-01T03:28:33.767Z,96691.45
2018-01-01T03:29:36.829Z,96692.81
2018-01-01T03:30:39.848Z,96696.41
2018-01-01T03:31:43.274Z,96691.34
2018-01-01T03:32:46.284Z,96694.88
2018-01-01T03:33:49.348Z,96685.00
2018-01-01T03:34:52.416Z,96692.69
2018-01-01T03:35:55.464Z,96678.13
2018-01-01T03:36:58.494Z,96676.99
2018-01-01T03:38:01.954Z,96663.78
2018-01-01T03:39:05.011Z,96680.69
2018-01-01T03:40:08.024Z,96679.42
2018-01-01T03:41:11.022Z,96683.48
2018-01-01T03:42:14.051Z,96664.55
2018-01-01T03:43:17.042Z,96689.23
2018-01-01T03:44:20.568Z,96669.22
2018-01-01T03:45:23.618Z,96656.35
2018-01-01T03:46:27.305Z,96668.58
2018-01-01T03:47:30.428Z,96666.73
2018-01-01T03:48:33.535Z,96666.23
2018-01-01T03:49:36.653Z,96668.90
2018-01-01T03:50:40.077Z,96669.92
2018-01-01T03:51:43.218Z,96678.80
2018-01-01T03:52:46.308Z,96676.72
2018-01-01T03:53:49.473Z,96672.01
2018-01-01T03:54:52.523Z,96677.16
2018-01-01T03:55:55.633Z,96663.08
2018-01-01T03:56:59.184Z,96679.97
2018-01-01T03:58:02.297Z,96676.22
2018-01-01T03:59:05.339Z,96691.36
2018-01-01T04:00:08.367Z,96660.76
2018-01-01T04:01:11.342Z,96673.41
2018-01-01T04:02:14.438Z,96677.06
2018-01-01T04:03:17.970Z,96660.27
2018-01-01T04:04:21.067Z,96682.20
2018-01-01T04:05:24.227Z,96681.40
2018-01-01T04:06:27.238Z,96675.43
2018-01-01T04:07:30.290Z,96668.02
2018-01-01T04:08:33.420Z,96689.31
2018-01-01T04:09:36.933Z,96680.92
2018-01-01T04:10:40.032Z,96686.59
2018-01-01T04:11:43.034Z,96681.36
2018-01-01T04:12:46.084Z,96674.67
2018-01-01T04:13:49.122Z,96685.66
2018-01-01T04:14:52.202Z,96690.21
2018-01-01T04:15:55.308Z,96676.84
2018-01-01T04:16:58.290Z,96681.88
2018-01-01T04:18:01.353Z,96676.12
2018-01-01T04:19:04.360Z,96692.87
2018-01-01T04:20:07.448Z,96693.48
2018-01-01T04:21:10.520Z,96688.13
2018-01-01T04:22:13.529Z,96697.26
2018-01-01T04:23:17.166Z,96694.33
2018-01-01T04:24:20.138Z,96707.18
2018-01-01T04:25:23.118Z,96696.02
2018-01-01T04:26:26.081Z,96701.02
2018-01-01T04:27:29.409Z,96709.13
2018-01-01T04:28:32.499Z,96693.41
2018-01-01T04:29:35.569Z,96704.39
2018-01-01T04:30:38.629Z,96716.41
2018-01-01T04:31:41.669Z,96688.89
2018-01-01T04:32:44.731Z,96705.64
2018-01-01T04:33:47.772Z,96727.19
2018-01-01T04:34:50.804Z,96710.81
2018-01-01T04:35:53.799Z,96712.77
2018-01-01T04:36:56.754Z,96713.25
2018-01-01T04:37:59.673Z,96727.75
2018-01-01T04:39:03.061Z,96725.26
2018-01-01T04:40:05.996Z,96737.11
2018-01-01T04:41:08.954Z,96727.22
2018-01-01T04:42:11.883Z,96734.77
2018-01-01T04:43:14.873Z,96736.31
2018-01-01T04:44:17.919Z,96743.09
2018-01-01T04:45:21.371Z,96748.42
2018-01-01T04:46:24.417Z,96739.53
2018-01-01T04:47:28.874Z,96737.45
2018-01-01T04:48:31.954Z,96754.02
2018-01-01T04:49:35.103Z,96727.98
2018-01-01T04:50:38.103Z,96763.31
2018-01-01T04:51:41.129Z,96756.80
2018-01-01T04:52:44.938Z,96765.73
2018-01-01T04:53:47.862Z,96736.34
2018-01-01T04:54:50.890Z,96765.13
2018-01-01T04:55:53.914Z,96753.42
2018-01-01T04:56:57.272Z,96749.09
2018-01-01T04:58:00.401Z,96733.58
2018-01-01T04:59:03.450Z,96752.98
2018-01-01T05:00:06.577Z,96748.96
2018-01-01T05:01:09.636Z,96745.14
2018-01-01T05:02:12.640Z,96745.33
2018-01-01T05:03:15.667Z,96744.13
2018-01-01T05:04:18.719Z,96763.58
2018-01-01T05:05:21.758Z,96744.56
2018-01-01T05:06:24.801Z,96738.73
2018-01-01T05:07:27.867Z,96759.56
2018-01-01T05:08:30.921Z,96751.30
2018-01-01T05:09:33.987Z,96753.17
2018-01-01T05:10:37.123Z,96753.91
2018-01-01T05:11:40.144Z,96748.20
2018-01-01T05:12:43.159Z,96744.45
2018-01-01T05:13:46.525Z,96742.65
2018-01-01T05:14:50.358Z,96705.52
2018-01-01T05:15:53.399Z,96744.02
2018-01-01T05:16:56.437Z,96753.04
2018-01-01T05:17:59.543Z,96747.22
2018-01-01T05:19:02.555Z,96747.98
2018-01-01T05:20:05.626Z,96752.01
2018-01-01T05:21:08.763Z,96751.25
2018-01-01T05:22:11.823Z,96752.08
2018-01-01T05:23:15.382Z,96731.58
2018-01-01T05:24:18.477Z,96757.95
2018-01-01T05:25:21.897Z,96751.84
2018-01-01T05:26:24.962Z,96757.06
2018-01-01T05:27:28.013Z,96752.77
2018-01-01T05:28:32.070Z,96754.40
2018-01-01T05:29:36.222Z,96760.18
2018-01-01T05:30:39.325Z,96747.11
2018-01-01T05:31:42.865Z,96759.84
2018-01-01T05:32:46.076Z,96766.50
2018-01-01T05:33:49.104Z,96773.38
2018-01-01T05:34:52.109Z,96773.26
2018-01-01T05:35:55.187Z,96779.63
2018-01-01T05:36:59.447Z,96772.89
2018-01-01T05:38:02.818Z,96774.38
2018-01-01T05:39:05.805Z,96788.48
2018-01-01T05:40:08.862Z,96783.73
2018-01-01T05:41:11.904Z,96773.59
2018-01-01T05:42:15.104Z,96785.81
2018-01-01T05:43:18.130Z,96783.36
2018-01-01T05:44:21.420Z,96785.48
2018-01-01T05:45:24.418Z,96793.25
2018-01-01T05:46:27.353Z,96785.53
2018-01-01T05:47:30.337Z,96780.30
2018-01-01T05:48:33.281Z,96793.33
2018-01-01T05:49:36.874Z,96796.72
2018-01-01T05:50:40.376Z,96800.67
2018-01-01T05:51:43.433Z,96804.11
2018-01-01T05:52:46.502Z,96789.30
2018-01-01T05:53:49.614Z,96808.52
2018-01-01T05:54:53.077Z,96811.33
2018-01-01T05:55:56.187Z,96813.23
2018-01-01T05:56:59.820Z,96819.67
2018-01-01T05:58:02.866Z,96812.08
2018-01-01T05:59:05.928Z,96808.48
2018-01-01T06:00:08.886Z,96810.80
2018-01-01T06:01:11.917Z,96819.18
2018-01-01T06:02:14.940Z,96823.94
2018-01-01T06:03:18.248Z,96822.45
2018-01-01T06:04:21.334Z,96820.70
2018-01-01T06:05:24.401Z,96821.55
2018-01-01T06:06:27.487Z,96828.20
2018-01-01T06:07:30.516Z,96824.39
2018-01-01T06:08:33.597Z,96817.69
2018-01-01T06:09:37.857Z,96825.79
2018-01-01T06:10:40.885Z,96813.74
2018-01-01T06:11:43.905Z,96814.59
2018-01-01T06:12:46.962Z,96826.27
2018-01-01T06:13:50.034Z,96829.53
2018-01-01T06:14:53.571Z,96833.01
2018-01-01T06:15:57.486Z,96813.41
2018-01-01T06:17:00.556Z,96821.39
2018-01-01T06:18:03.679Z,96830.30
2018-01-01T06:19:06.776Z,96830.20
2018-01-01T06:20:09.893Z,96817.05
2018-01-01T06:21:13.020Z,96818.58
2018-01-01T06:22:16.087Z,96822.18
2018-01-01T06:23:19.176Z,96834.48
2018-01-01T06:24:22.263Z,96856.05
2018-01-01T06:25:25.210Z,96831.95
2018-01-01T06:26:28.133Z,96857.75
2018-01-01T06:27:31.385Z,96852.02
2018-01-01T06:28:34.536Z,96837.16
2018-01-01T06:29:37.585Z,96837.45
2018-01-01T06:30:42.035Z,96861.69
2018-01-01T06:31:45.442Z,96862.66
2018-01-01T06:32:48.485Z,96869.66
2018-01-01T06:33:51.978Z,96846.12
2018-01-01T06:34:55.033Z,96843.73
2018-01-01T06:35:58.195Z,96864.34
2018-01-01T06:37:01.246Z,96874.45
2018-01-01T06:38:04.368Z,96868.23
2018-01-01T06:39:07.450Z,96875.33
2018-01-01T06:40:10.904Z,96870.85
2018-01-01T06:41:13.925Z,96871.09
2018-01-01T06:42:16.982Z,96865.95
2018-01-01T06:43:20.116Z,96877.92
2018-01-01T06:44:23.133Z,96869.70
2018-01-01T06:45:26.195Z,96874.76
2018-01-01T06:46:29.228Z,96882.67
2018-01-01T06:47:32.280Z,96877.67
2018-01-01T06:48:35.368Z,96879.73
2018-01-01T06:49:38.416Z,96845.12
2018-01-01T06:50:41.442Z,96880.77
2018-01-01T06:51:44.456Z,96879.06
2018-01-01T06:52:47.524Z,96885.61
2018-01-01T06:53:50.603Z,96884.51
2018-01-01T06:54:53.664Z,96892.50
2018-01-01T06:55:56.702Z,96852.13
2018-01-01T06:57:00.136Z,96870.31
2018-01-01T06:58:03.154Z,96891.86
2018-01-01T06:59:06.225Z,96890.81
2018-01-01T07:00:09.287Z,96886.04
2018-01-01T07:01:12.367Z,96893.10
2018-01-01T07:02:15.345Z,96913.58
2018-01-01T07:03:18.644Z,96907.78
2018-01-01T07:04:21.534Z,96889.17
2018-01-01T07:05:24.428Z,96911.25
2018-01-01T07:06:27.453Z,96877.84
2018-01-01T07:07:30.423Z,96919.98
2018-01-01T07:08:33.732Z,96914.73
2018-01-01T07:09:37.087Z,96918.34
2018-01-01T07:10:40.086Z,96904.04
2018-01-01T07:11:43.061Z,96918.91
2018-01-01T07:12:46.003Z,96889.48
2018-01-01T07:13:49.045Z,96895.21
2018-01-01T07:14:52.051Z,96892.52
2018-01-01T07:15:55.395Z,96898.73
2018-01-01T07:16:58.354Z,96892.93
2018-01-01T07:18:01.386Z,96897.52
2018-01-01T07:19:04.344Z,96904.42
2018-01-01T07:20:07.469Z,96902.52
2018-01-01T07:21:10.526Z,96909.34
2018-01-01T07:22:13.885Z,96915.95
2018-01-01T07:23:16.935Z,96890.60
2018-01-01T07:24:20.014Z,96899.88
2018-01-01T07:25:23.041Z,96913.27
2018-01-01T07:26:26.104Z,96925.27
2018-01-01T07:27:29.098Z,96917.47
2018-01-01T07:28:32.661Z,96919.60
2018-01-01T07:29:35.725Z,96918.06
2018-01-01T07:30:38.755Z,96903.33
2018-01-01T07:31:41.802Z,96923.14
2018-01-01T07:32:44.792Z,96915.53
2018-01-01T07:33:47.834Z,96915.88
2018-01-01T07:34:50.800Z,96908.67
2018-01-01T07:35:53.834Z,96905.89
2018-01-01T07:36:56.755Z,96912.95
2018-01-01T07:37:59.681Z,96912.53
2018-01-01T07:39:02.634Z,96923.02
2018-01-01T07:40:05.672Z,96915.67
2018-01-01T07:41:08.607Z,96924.10
2018-01-01T07:42:11.873Z,96926.20
2018-01-01T07:43:14.795Z,96918.86
2018-01-01T07:44:17.870Z,96924.79
2018-01-01T07:45:20.912Z,96920.24
2018-01-01T07:46:24.986Z,96928.23
2018-01-01T07:47:28.074Z,96928.80
2018-01-01T07:48:31.502Z,96933.95
2018-01-01T07:49:34.573Z,96928.28
2018-01-01T07:50:37.573Z,96930.44
2018-01-01T07:51:40.624Z,96927.31
2018-01-01T07:52:43.684Z,96945.28
2018-01-01T07:53:46.706Z,96940.20
2018-01-01T07:54:49.821Z,96946.31
2018-01-01T07:55:52.845Z,96942.72
2018-01-01T07:56:55.928Z,96938.13
2018-01-01T07:57:58.906Z,96938.88
2018-01-01T07:59:01.899Z,96897.89
2018-01-01T08:00:05.350Z,96935.94
2018-01-01T08:01:08.380Z,96941.37
2018-01-01T08:02:11.620Z,96941.95
2018-01-01T08:03:14.640Z,96943.28
2018-01-01T08:04:17.688Z,96928.68
2018-01-01T08:05:20.651Z,96950.34
2018-01-01T08:06:23.983Z,96947.43
2018-01-01T08:07:27.025Z,96947.27
2018-01-01T08:08:30.021Z,96960.88
2018-01-01T08:09:32.977Z,96949.77
2018-01-01T08:10:35.942Z,96951.84
2018-01-01T08:11:39.079Z,96960.67
2018-01-01T08:12:42.464Z,96951.42
2018-01-01T08:13:45.518Z,96969.33
2018-01-01T08:14:48.592Z,96942.63
2018-01-01T08:15:51.554Z,96950.86
2018-01-01T08:16:54.503Z,96966.81
2018-01-01T08:17:57.465Z,96956.34
2018-01-01T08:19:00.839Z,96946.59
2018-01-01T08:20:03.884Z,96944.16
2018-01-01T08:21:06.974Z,96977.11
2018-01-01T08:22:10.022Z,96950.91
2018-01-01T08:23:13.126Z,96962.13
2018-01-01T08:24:16.184Z,96951.77
2018-01-01T08:25:19.642Z,96956.40
2018-01-01T08:26:22.691Z,96952.06
2018-01-01T08:27:25.769Z,96969.02
2018-01-01T08:28:28.792Z,96950.80
2018-01-01T08:29:31.842Z,96961.80
2018-01-01T08:30:34.936Z,96955.41
2018-01-01T08:31:38.293Z,96964.92
2018-01-01T08:32:41.355Z,96955.30
2018-01-01T08:33:44.427Z,96942.20
2018-01-01T08:34:47.486Z,96950.49
2018-01-01T08:35:50.570Z,96942.77
2018-01-01T08:36:53.662Z,96954.03
2018-01-01T08:37:57.170Z,96946.07
2018-01-01T08:39:00.215Z,96944.22
2018-01-01T08:40:03.270Z,96935.26
2018-01-01T08:41:06.316Z,96936.70
2018-01-01T08:42:09.345Z,96941.05
2018-01-01T08:43:12.384Z,96947.40
2018-01-01T08:44:15.838Z,96957.88
2018-01-01T08:45:18.884Z,96963.81
2018-01-01T08:46:21.914Z,96962.41
2018-01-01T08:47:25.026Z,96968.22
2018-01-01T08:48:28.086Z,96954.78
2018-01-01T08:49:31.133Z,96950.95
2018-01-01T08:50:34.536Z,96981.04
2018-01-01T08:51:37.575Z,96967.37
2018-01-01T08:52:40.622Z,96976.92
2018-01-01T08:53:43.671Z,96986.52
2018-01-01T08:54:46.727Z,96992.08
2018-01-01T08:55:49.796Z,96980.98
2018-01-01T08:56:53.233Z,96980.27
2018-01-01T08:57:56.308Z,96976.95
2018-01-01T08:58:59.362Z,96995.37
2018-01-01T09:00:02.508Z,96985.45
2018-01-01T09:01:05.530Z,96985.78
2018-01-01T09:02:08.611Z,96981.16
2018-01-01T09:03:11.628Z,96963.05
2018-01-01T09:04:14.840Z,96972.72
2018-01-01T09:05:17.924Z,96959.12
2018-01-01T09:06:20.994Z,96973.75
2018-01-01T09:07:24.102Z,96952.58
2018-01-01T09:08:27.597Z,96970.56
2018-01-01T09:09:30.706Z,96969.76
2018-01-01T09:10:33.897Z,96967.08
2018-01-01T09:11:36.937Z,96950.71
2018-01-01T09:12:39.923Z,96968.31
2018-01-01T09:13:42.967Z,96957.08
2018-01-01T09:14:46.311Z,96963.00
2018-01-01T09:15:49.330Z,96941.50
2018-01-01T09:16:52.435Z,96946.77
2018-01-01T09:17:55.497Z,96969.16
2018-01-01T09:18:58.971Z,96967.81
2018-01-01T09:20:01.997Z,96910.09
2018-01-01T09:21:06.156Z,96973.18
2018-01-01T09:22:09.123Z,96966.55
2018-01-01T09:23:12.197Z,96958.13
2018-01-01T09:24:15.226Z,96949.86
2018-01-01T09:25:18.353Z,96961.94
2018-01-01T09:26:21.500Z,96982.02
2018-01-01T09:27:24.862Z,96963.52
2018-01-01T09:28:27.895Z,96979.19
2018-01-01T09:29:30.976Z,96954.63
2018-01-01T09:30:34.055Z,96967.75
2018-01-01T09:31:37.154Z,96963.61
2018-01-01T09:32:40.237Z,96956.14
2018-01-01T09:33:43.776Z,96968.87
2018-01-01T09:34:46.826Z,96956.02
2018-01-01T09:35:49.871Z,96961.83
2018-01-01T09:36:53.022Z,96957.80
2018-01-01T09:37:56.094Z,96977.09
2018-01-01T09:38:59.181Z,96944.78
2018-01-01T09:40:02.546Z,96933.30
2018-01-01T09:41:05.618Z,96950.41
2018-01-01T09:42:08.667Z,96964.03
2018-01-01T09:43:11.739Z,96932.20
2018-01-01T09:44:14.838Z,96943.91
2018-01-01T09:45:17.845Z,96939.73
2018-01-01T09:46:21.297Z,96919.99
2018-01-01T09:47:24.380Z,96937.74
2018-01-01T09:48:27.471Z,96942.00
2018-01-01T09:49:30.520Z,96937.81
2018-01-01T09:50:33.541Z,96942.80
2018-01-01T09:51:36.666Z,96928.80
2018-01-01T09:52:40.205Z,96930.17
2018-01-01T09:53:43.290Z,96922.89
2018-01-01T09:54:46.350Z,96913.96
2018-01-01T09:55:49.495Z,96915.36
2018-01-01T09:56:52.589Z,96926.59
2018-01-01T09:57:55.655Z,96923.19
2018-01-01T09:58:59.187Z,96942.97
2018-01-01T10:00:02.543Z,96878.41
2018-01-01T10:01:05.599Z,96926.50
2018-01-01T10:02:08.700Z,96908.95
2018-01-01T10:03:11.740Z,96908.37
2018-01-01T10:04:14.844Z,96906.17
2018-01-01T10:05:18.260Z,96883.27
2018-01-01T10:07:35.058Z,96900.48
2018-01-01T10:08:39.011Z,96912.81
2018-01-01T10:09:43.062Z,96921.72
2018-01-01T10:10:47.021Z,96913.63
2018-01-01T10:11:51.513Z,96895.36
2018-01-01T10:12:55.614Z,96904.82
2018-01-01T10:14:00.142Z,96917.38
2018-01-01T10:15:04.138Z,96913.25
2018-01-01T10:16:08.087Z,96879.02
2018-01-01T10:17:12.327Z,96901.64
2018-01-01T10:18:17.664Z,96905.74
2018-01-01T10:19:21.659Z,96914.89
2018-01-01T10:20:24.718Z,96920.36
2018-01-01T10:21:27.828Z,96918.23
2018-01-01T10:22:30.900Z,96917.31
2018-01-01T10:23:33.973Z,96906.22
2018-01-01T10:24:37.206Z,96923.25
2018-01-01T10:25:40.304Z,96906.63
2018-01-01T10:26:43.345Z,96922.24
2018-01-01T10:27:46.429Z,96921.81
2018-01-01T10:28:49.498Z,96934.94
2018-01-01T10:29:53.006Z,96917.55
2018-01-01T10:30:56.739Z,96901.69
2018-01-01T10:31:59.782Z,96911.20
2018-01-01T10:33:03.414Z,96910.60
2018-01-01T10:34:06.428Z,96904.05
2018-01-01T10:35:09.617Z,96911.16
2018-01-01T10:36:13.145Z,96899.80
2018-01-01T10:37:16.349Z,96900.45
2018-01-01T10:38:19.449Z,96911.20
2018-01-01T10:39:22.484Z,96902.28
2018-01-01T10:40:25.517Z,96918.50
2018-01-01T10:41:28.570Z,96920.33
2018-01-01T10:42:31.985Z,96906.52
2018-01-01T10:43:35.226Z,96906.36
2018-01-01T10:44:38.268Z,96923.05
2018-01-01T10:45:41.413Z,96906.69
2018-01-01T10:46:44.446Z,96898.16
2018-01-01T10:47:47.486Z,96902.16
2018-01-01T10:48:50.932Z,96917.73
2018-01-01T10:49:53.999Z,96929.28
2018-01-01T10:50:57.100Z,96908.00
2018-01-01T10:52:00.320Z,96866.76
2018-01-01T10:53:03.386Z,96884.70
2018-01-01T10:54:06.419Z,96898.32
2018-01-01T10:55:09.676Z,96910.53
2018-01-01T10:56:12.680Z,96891.95
2018-01-01T10:57:15.728Z,96889.98
2018-01-01T10:58:18.783Z,96912.23
2018-01-01T10:59:21.878Z,96886.84
2018-01-01T11:00:25.075Z,96851.13
2018-01-01T11:01:28.505Z,96906.91
2018-01-01T11:02:32.463Z,96877.13
2018-01-01T11:03:35.626Z,96877.11
2018-01-01T11:04:38.631Z,96862.38
2018-01-01T11:05:41.614Z,96867.35
2018-01-01T11:06:44.666Z,96877.64
2018-01-01T11:07:48.199Z,96881.09
2018-01-01T11:08:51.346Z,96878.72
2018-01-01T11:09:54.394Z,96877.92
2018-01-01T11:10:57.432Z,96874.05
2018-01-01T11:12:00.562Z,96882.23
2018-01-01T11:13:03.714Z,96879.25
2018-01-01T11:14:07.256Z,96894.75
2018-01-01T11:15:10.301Z,96880.62
2018-01-01T11:16:13.340Z,96876.13
2018-01-01T11:17:16.303Z,96876.28
2018-01-01T11:18:19.244Z,96874.05
2018-01-01T11:19:22.178Z,96859.39
2018-01-01T11:20:25.589Z,96878.88
2018-01-01T11:21:28.569Z,96859.78
2018-01-01T11:22:31.659Z,96874.50
2018-01-01T11:23:34.715Z,96862.69
2018-01-01T11:24:37.818Z,96862.63
2018-01-01T11:25:40.766Z,96858.38
2018-01-01T11:26:44.091Z,96854.05
2018-01-01T11:27:47.958Z,96856.14
2018-01-01T11:28:50.999Z,96845.91
2018-01-01T11:29:54.129Z,96858.13
2018-01-01T11:30:57.205Z,96848.42
2018-01-01T11:32:00.240Z,96847.91
2018-01-01T11:33:03.694Z,96842.66
2018-01-01T11:34:06.719Z,96856.53
2018-01-01T11:35:09.946Z,96864.11
2018-01-01T11:36:13.014Z,96844.53
2018-01-01T11:37:16.090Z,96841.74
2018-01-01T11:38:19.099Z,96835.98
2018-01-01T11:39:22.525Z,96826.73
2018-01-01T11:40:25.712Z,96843.47
2018-01-01T11:41:28.758Z,96826.45
2018-01-01T11:42:31.899Z,96832.00
2018-01-01T11:43:34.924Z,96843.73
2018-01-01T11:44:38.028Z,96823.27
2018-01-01T11:45:41.177Z,96833.86
2018-01-01T11:46:44.296Z,96816.11
2018-01-01T11:47:47.392Z,96807.63
2018-01-01T11:48:50.516Z,96812.72
2018-01-01T11:49:53.631Z,96813.59
2018-01-01T11:50:56.775Z,96829.64
2018-01-01T11:51:59.858Z,96813.50
2018-01-01T11:53:02.955Z,96807.06
2018-01-01T11:54:06.004Z,96816.23
2018-01-01T11:55:09.084Z,96794.84
2018-01-01T11:56:12.516Z,96789.06
2018-01-01T11:57:15.573Z,96797.22
2018-01-01T11:58:18.608Z,96786.16
2018-01-01T11:59:21.757Z,96778.94
2018-01-01T12:00:24.838Z,96774.16
2018-01-01T12:01:27.878Z,96778.69
2018-01-01T12:02:31.336Z,96782.54
2018-01-01T12:03:34.403Z,96782.67
2018-01-01T12:04:37.507Z,96783.23
2018-01-01T12:05:40.567Z,96779.81
2018-01-01T12:06:43.639Z,96781.44
2018-01-01T12:07:46.707Z,96774.78
2018-01-01T12:08:50.064Z,96767.49
2018-01-01T12:09:53.160Z,96767.48
2018-01-01T12:10:56.239Z,96759.14
2018-01-01T12:11:59.335Z,96785.46
2018-01-01T12:13:02.428Z,96768.70
2018-01-01T12:14:05.795Z,96774.35
2018-01-01T12:15:09.438Z,96775.56
2018-01-01T12:16:12.515Z,96768.31
2018-01-01T12:17:15.878Z,96763.38
2018-01-01T12:18:18.993Z,96760.66
2018-01-01T12:19:22.065Z,96772.50
2018-01-01T12:20:25.124Z,96778.00
2018-01-01T12:21:28.497Z,96764.02
2018-01-01T12:22:31.581Z,96761.97
2018-01-01T12:23:34.698Z,96756.51